Time;durP1;ratioP1;P1;durP2;ratioP2;P2;SDS_P1;SDS_P2;PMS_P1;PMS_P2;Temp;Humidity;BMP_temperature;BMP_pressure;BME280_temperature;BME280_humidity;BME280_pressure;Samples;Min_cycle;Max_cycle;Signal;HPM_P1;HPM_P2
2021/09/21 00:01:06;;;;;;;4.12;2.15;;;;;;;7.50;82.25;99283.61;1729215;82;21067;-69
2021/09/21 00:03:33;;;;;;;4.15;1.98;;;;;;;7.54;82.26;99277.95;1729968;82;21056;-69
2021/09/21 00:06:03;;;;;;;5.15;2.10;;;;;;;7.59;82.15;99286.62;1743733;82;21051;-69
2021/09/21 00:08:30;;;;;;;3.58;2.50;;;;;;;7.62;82.10;99286.09;1748184;82;21457;-69
2021/09/21 00:10:57;;;;;;;5.37;2.30;;;;;;;7.54;82.36;99279.30;1753071;82;21612;-69
2021/09/21 00:13:24;;;;;;;2.47;1.85;;;;;;;7.56;82.43;99279.02;1750525;82;20931;-70
2021/09/21 00:15:52;;;;;;;3.30;2.33;;;;;;;7.59;82.31;99285.27;1727832;82;21090;-69
2021/09/21 00:18:20;;;;;;;3.90;2.35;;;;;;;7.56;82.37;99287.97;1745463;81;20951;-69
2021/09/21 00:20:48;;;;;;;3.85;2.00;;;;;;;7.51;82.60;99290.63;1750614;81;21075;-69
2021/09/21 00:23:14;;;;;;;4.45;2.27;;;;;;;7.56;82.35;99285.26;1745328;82;21062;-69
2021/09/21 00:25:42;;;;;;;5.80;2.10;;;;;;;7.51;82.38;99278.45;1690531;83;21064;-68
2021/09/21 00:28:09;;;;;;;4.20;2.65;;;;;;;7.50;82.44;99272.24;1688614;83;21055;-69
2021/09/21 00:30:35;;;;;;;;;;;;;;;7.54;82.30;99283.90;1736664;82;21078;-69
2021/09/21 00:33:03;;;;;;;4.35;2.33;;;;;;;7.54;82.27;99287.43;1746952;82;20162;-69
2021/09/21 00:35:30;;;;;;;4.03;2.40;;;;;;;7.43;82.55;99292.50;1748446;82;21118;-69
2021/09/21 00:37:58;;;;;;;4.08;2.30;;;;;;;7.45;82.63;99291.16;1744658;82;20971;-69
2021/09/21 00:40:24;;;;;;;4.00;1.95;;;;;;;7.51;82.45;99283.86;1744220;82;21046;-69
2021/09/21 00:42:52;;;;;;;5.55;2.20;;;;;;;7.51;82.35;99290.09;1738611;82;21590;-69
2021/09/21 00:45:23;;;;;;;3.25;2.17;;;;;;;7.45;82.34;99293.05;1742079;82;21028;-68
2021/09/21 00:47:52;;;;;;;2.87;1.90;;;;;;;7.46;82.39;99293.33;1740137;82;21007;-68
2021/09/21 00:50:21;;;;;;;4.67;2.10;;;;;;;7.51;82.11;99294.70;1736757;82;21083;-68
2021/09/21 00:52:50;;;;;;;4.30;2.00;;;;;;;7.45;82.07;99295.22;1726826;82;21043;-69
2021/09/21 00:55:19;;;;;;;3.55;1.82;;;;;;;7.46;82.02;99297.39;1719190;82;21550;-69
2021/09/21 00:57:46;;;;;;;4.00;2.25;;;;;;;7.49;81.72;99302.28;1757622;81;21530;-69
2021/09/21 01:00:15;;;;;;;3.95;2.42;;;;;;;7.46;81.54;99296.04;1746108;81;21536;-69
2021/09/21 01:02:41;;;;;;;5.35;2.05;;;;;;;7.35;81.66;99297.88;1728262;82;20983;-69
2021/09/21 01:05:09;;;;;;;3.80;2.12;;;;;;;7.32;81.66;99294.88;1689765;83;21386;-69
2021/09/21 01:07:39;;;;;;;5.05;2.15;;;;;;;7.34;81.44;99300.30;1677236;85;21005;-69
2021/09/21 01:10:09;;;;;;;3.98;2.30;;;;;;;7.28;81.45;99305.94;1720127;82;21601;-69
2021/09/21 01:12:36;;;;;;;2.80;2.02;;;;;;;7.18;81.69;99305.88;1747501;82;20995;-69
2021/09/21 01:15:04;;;;;;;3.22;2.20;;;;;;;7.18;81.73;99303.98;1750360;81;21074;-69
2021/09/21 01:17:32;;;;;;;4.40;2.50;;;;;;;7.25;81.55;99299.70;1741450;82;20965;-69
2021/09/21 01:19:59;;;;;;;2.85;2.05;;;;;;;7.19;81.67;99302.09;1738983;82;21587;-69
2021/09/21 01:22:26;;;;;;;4.60;2.08;;;;;;;7.20;81.79;99301.82;1736826;82;21032;-68
2021/09/21 01:24:52;;;;;;;;;;;;;;;7.25;81.53;99302.41;1746138;81;21038;-69
2021/09/21 01:27:19;;;;;;;4.83;2.58;;;;;;;7.23;81.54;99307.24;1752050;81;20134;-69
2021/09/21 01:29:45;;;;;;;;;;;;;;;7.10;81.94;99297.69;1758029;81;21050;-69
2021/09/21 01:32:11;;;;;;;4.67;1.90;;;;;;;7.13;81.85;99294.47;1749689;82;20119;-67
2021/09/21 01:34:38;;;;;;;5.10;1.90;;;;;;;7.12;81.85;99292.03;1747043;81;21046;-69
2021/09/21 01:37:06;;;;;;;2.92;2.10;;;;;;;7.07;81.94;99295.51;1738886;82;21097;-69
2021/09/21 01:39:33;;;;;;;4.72;1.98;;;;;;;7.03;82.05;99290.87;1744267;82;21143;-69
2021/09/21 01:42:00;;;;;;;4.75;2.15;;;;;;;7.08;81.95;99301.20;1746092;82;21043;-69
2021/09/21 01:44:26;;;;;;;4.15;2.20;;;;;;;7.12;81.76;99295.53;1743187;82;21134;-69
2021/09/21 01:46:54;;;;;;;4.00;2.17;;;;;;;7.10;81.72;99294.98;1733509;82;21039;-68
2021/09/21 01:49:20;;;;;;;2.83;1.92;;;;;;;7.04;81.83;99308.21;1731470;82;21106;-68
2021/09/21 01:52:26;;;;;;;;;;;;;;;7.05;81.79;99300.91;1744849;82;21039;-68
2021/09/21 01:59:50;;;;;;;3.45;1.92;;;;;;;6.91;82.06;99309.45;1745848;82;21039;-68
2021/09/21 02:02:17;;;;;;;3.62;1.85;;;;;;;6.97;81.93;99310.32;1741547;82;21028;-68
2021/09/21 02:04:43;;;;;;;2.62;1.62;;;;;;;7.04;81.82;99305.50;1731182;82;21047;-68
2021/09/21 02:07:10;;;;;;;3.50;1.87;;;;;;;7.07;81.70;99297.39;1699145;84;21107;-68
2021/09/21 02:09:38;;;;;;;3.10;2.00;;;;;;;7.03;81.80;99306.57;1687794;84;21076;-68
2021/09/21 02:12:05;;;;;;;4.05;1.90;;;;;;;7.04;81.71;99314.16;1722297;83;21059;-67
2021/09/21 02:14:31;;;;;;;3.33;1.62;;;;;;;7.08;81.49;99308.51;1734697;82;21055;-68
2021/09/21 02:16:58;;;;;;;2.80;1.80;;;;;;;7.08;81.49;99305.80;1747071;82;21008;-68
2021/09/21 02:19:25;;;;;;;2.85;1.62;;;;;;;7.02;81.63;99311.70;1743334;82;21115;-68
2021/09/21 02:21:53;;;;;;;2.77;1.52;;;;;;;7.03;81.61;99312.52;1743876;81;21628;-68
2021/09/21 02:24:22;;;;;;;;;;;;;;;7.10;81.51;99313.11;1757330;82;21501;-68
2021/09/21 02:26:47;;;;;;;2.77;1.80;;;;;;;7.08;81.48;99313.39;1745639;81;20134;-68
2021/09/21 02:29:14;;;;;;;2.92;1.55;;;;;;;6.95;81.70;99321.39;1756108;81;21506;-68
2021/09/21 02:31:41;;;;;;;2.67;1.50;;;;;;;6.94;81.86;99314.90;1752637;82;20999;-67
2021/09/21 02:34:08;;;;;;;3.22;1.40;;;;;;;6.97;81.58;99316.55;1741864;81;20986;-69
2021/09/21 02:36:40;;;;;;;3.05;1.50;;;;;;;6.95;81.61;99319.22;1752924;81;20991;-68
2021/09/21 02:39:04;;;;;;;4.85;1.70;;;;;;;6.90;81.83;99317.84;1751871;82;20996;-68
2021/09/21 02:41:30;;;;;;;2.25;1.40;;;;;;;6.92;81.71;99319.73;1727826;82;21043;-68
2021/09/21 02:43:56;;;;;;;5.03;1.75;;;;;;;6.97;81.58;99320.61;1754598;82;21010;-68
2021/09/21 02:46:23;;;;;;;2.50;1.80;;;;;;;6.99;81.46;99314.39;1748036;82;21131;-69
2021/09/21 02:48:49;;;;;;;4.17;1.62;;;;;;;6.94;81.63;99312.98;1747633;82;21066;-69
2021/09/21 02:51:15;;;;;;;2.05;1.25;;;;;;;6.97;81.72;99319.80;1752607;82;21086;-68
2021/09/21 02:53:43;;;;;;;2.80;1.22;;;;;;;7.04;81.55;99321.75;1754462;81;20988;-69
2021/09/21 02:56:13;;;;;;;1.65;1.20;;;;;;;7.05;81.46;99319.30;1753578;81;21118;-69
2021/09/21 02:58:40;;;;;;;3.15;1.50;;;;;;;7.01;81.57;99320.91;1697443;82;21537;-69
2021/09/21 03:01:06;;;;;;;4.10;1.30;;;;;;;7.02;81.47;99317.11;1751678;81;21078;-68
2021/09/21 03:03:41;;;;;;;2.52;1.22;;;;;;;7.06;81.19;99320.94;1745870;81;21608;-69
2021/09/21 03:06:07;;;;;;;2.77;1.02;;;;;;;7.07;80.97;99323.93;1757133;81;21157;-68
2021/09/21 03:08:34;;;;;;;2.12;1.02;;;;;;;7.00;81.01;99320.63;1754700;81;21593;-69
2021/09/21 03:18:53;;;;;;;2.37;1.07;;;;;;;6.97;80.46;99323.31;1754967;81;20980;-69
2021/09/21 03:21:21;;;;;;;2.85;1.50;;;;;;;6.85;80.42;99320.48;1750426;81;21134;-69
2021/09/21 03:23:49;;;;;;;2.83;1.20;;;;;;;6.84;80.43;99332.38;1742377;82;21007;-69
2021/09/21 03:26:16;;;;;;;4.15;1.05;;;;;;;6.88;80.24;99328.91;1744028;82;21095;-69
2021/09/21 03:28:44;;;;;;;2.15;1.30;;;;;;;6.88;80.23;99328.09;1746025;82;21605;-69
2021/09/21 03:31:11;;;;;;;2.30;1.10;;;;;;;6.82;80.30;99327.77;1738116;82;21087;-67
2021/09/21 03:33:38;;;;;;;1.80;1.25;;;;;;;6.81;80.25;99331.54;1724605;82;21156;-69
2021/09/21 03:36:04;;;;;;;4.50;1.47;;;;;;;6.86;80.19;99324.83;1746738;82;21068;-67
2021/09/21 03:38:31;;;;;;;2.90;1.12;;;;;;;6.87;80.10;99324.56;1748297;82;20935;-69
2021/09/21 03:40:59;;;;;;;3.75;1.10;;;;;;;6.83;80.19;99330.77;1730972;81;21011;-69
2021/09/21 03:43:25;;;;;;;5.12;1.20;;;;;;;6.85;80.28;99331.31;1740476;82;20971;-68
2021/09/21 03:45:52;;;;;;;2.35;1.22;;;;;;;6.91;80.06;99325.68;1732034;82;21039;-69
2021/09/21 03:48:18;;;;;;;5.33;1.40;;;;;;;6.91;79.96;99332.98;1745885;82;21069;-69
2021/09/21 03:50:44;;;;;;;3.80;1.10;;;;;;;6.84;80.05;99331.84;1735602;82;21062;-68
2021/09/21 03:53:11;;;;;;;1.85;1.10;;;;;;;6.82;80.14;99330.48;1739495;82;21039;-69
2021/09/21 03:55:39;;;;;;;1.95;1.00;;;;;;;6.85;80.02;99329.42;1739904;82;21042;-67
2021/09/21 03:58:05;;;;;;;3.77;1.20;;;;;;;6.83;80.23;99324.82;1729245;82;21051;-68
2021/09/21 04:00:32;;;;;;;4.70;1.25;;;;;;;6.87;80.39;99322.42;1734895;82;21605;-68
2021/09/21 04:02:59;;;;;;;3.22;1.27;;;;;;;6.94;80.21;99326.52;1740357;82;21467;-68
2021/09/21 04:05:25;;;;;;;2.50;1.40;;;;;;;6.91;80.13;99328.39;1744513;82;21596;-68
2021/09/21 04:07:51;;;;;;;2.58;1.17;;;;;;;6.86;80.35;99322.13;1743904;81;21107;-68
2021/09/21 04:10:18;;;;;;;4.58;1.72;;;;;;;6.83;80.44;99322.65;1726078;82;21056;-68
2021/09/21 04:12:45;;;;;;;2.17;1.10;;;;;;;6.91;80.37;99322.16;1742096;82;21054;-68
2021/09/21 04:15:12;;;;;;;2.17;1.25;;;;;;;6.93;80.34;99326.79;1742237;82;21076;-68
2021/09/21 04:17:38;;;;;;;2.00;1.20;;;;;;;6.89;80.49;99329.20;1742982;82;21029;-68
2021/09/21 04:20:06;;;;;;;;;;;;;;;6.86;80.67;99330.25;1745768;81;21055;-68
2021/09/21 04:22:33;;;;;;;1.72;1.00;;;;;;;6.91;80.55;99329.73;1775594;80;20106;-69
2021/09/21 04:24:59;;;;;;;2.70;1.20;;;;;;;6.95;80.42;99329.51;1728511;81;21565;-68
2021/09/21 04:27:26;;;;;;;2.50;1.20;;;;;;;6.96;80.41;99333.03;1750230;81;21565;-69
2021/09/21 04:29:58;;;;;;;3.98;1.30;;;;;;;6.91;80.43;99332.98;1736061;81;21048;-68
2021/09/21 04:32:22;;;;;;;4.08;1.30;;;;;;;6.94;80.48;99329.22;1758007;80;21128;-71
2021/09/21 04:34:49;;;;;;;2.50;1.40;;;;;;;7.04;80.15;99334.45;1752611;80;21035;-70
2021/09/21 04:37:16;;;;;;;5.90;1.60;;;;;;;7.03;80.14;99328.75;1753544;81;21099;-69
2021/09/21 04:39:42;;;;;;;4.10;1.45;;;;;;;6.99;80.23;99327.10;1754377;81;21110;-69
2021/09/21 04:42:10;;;;;;;3.45;1.57;;;;;;;7.03;80.18;99324.70;1739685;81;21546;-69
2021/09/21 04:44:37;;;;;;;1.85;1.32;;;;;;;7.06;79.86;99332.30;1749564;81;21558;-69
2021/09/21 04:47:05;;;;;;;2.87;1.40;;;;;;;7.00;79.89;99320.63;1757270;80;21530;-73
2021/09/21 04:49:31;;;;;;;;;;;;;;;7.03;79.79;99332.81;1743095;81;21047;-68
2021/09/21 04:51:58;;;;;;;1.90;1.07;;;;;;;7.08;79.60;99326.10;1748807;81;20142;-69
2021/09/21 04:54:27;;;;;;;2.30;1.30;;;;;;;7.01;79.62;99331.17;1756198;80;21555;-68
2021/09/21 04:56:55;;;;;;;3.37;1.40;;;;;;;6.97;79.78;99338.73;1736022;80;20999;-68
2021/09/21 04:59:23;;;;;;;4.22;1.65;;;;;;;6.98;79.81;99335.75;1739888;81;21090;-68
2021/09/21 05:01:50;;;;;;;4.55;2.10;;;;;;;7.04;79.54;99336.63;1744208;81;21078;-68
2021/09/21 05:04:17;;;;;;;4.22;2.50;;;;;;;7.08;79.39;99330.16;1736060;81;21030;-68
2021/09/21 05:06:43;;;;;;;4.10;2.10;;;;;;;7.03;79.57;99329.58;1774462;80;21050;-68
2021/09/21 05:09:15;;;;;;;2.45;1.67;;;;;;;7.00;79.82;99326.03;1782045;80;21074;-69
2021/09/21 05:11:45;;;;;;;3.55;1.70;;;;;;;7.06;79.82;99330.41;1753160;81;21549;-69
2021/09/21 05:14:13;;;;;;;2.55;1.90;;;;;;;7.17;79.44;99330.77;1741769;81;20961;-69
2021/09/21 05:16:39;;;;;;;4.22;2.30;;;;;;;7.18;79.34;99329.70;1749236;81;21062;-68
2021/09/21 05:19:08;;;;;;;2.55;1.75;;;;;;;7.15;79.45;99332.94;1756034;81;21504;-69
2021/09/21 05:21:36;;;;;;;2.60;1.40;;;;;;;7.20;79.42;99330.25;1738125;81;21080;-69
2021/09/21 05:24:05;;;;;;;2.72;1.45;;;;;;;7.24;79.00;99335.95;1753296;81;20967;-68
2021/09/21 05:26:32;;;;;;;3.87;1.57;;;;;;;7.19;78.92;99338.08;1732840;81;20987;-68
2021/09/21 05:28:58;;;;;;;1.70;1.10;;;;;;;7.12;79.07;99333.98;1724945;83;21062;-69
2021/09/21 05:31:25;;;;;;;2.92;1.15;;;;;;;7.12;79.12;99333.42;1753979;81;21127;-69
2021/09/21 05:33:51;;;;;;;;;;;;;;;7.20;78.92;99336.20;1760785;81;21042;-68
2021/09/21 05:36:18;;;;;;;3.42;1.40;;;;;;;7.18;78.78;99337.00;1758230;81;20094;-68
2021/09/21 05:38:44;;;;;;;1.50;1.00;;;;;;;7.03;79.30;99341.75;1758778;81;21046;-68
2021/09/21 05:41:12;;;;;;;2.08;0.88;;;;;;;7.02;79.42;99330.64;1755003;81;21549;-68
2021/09/21 05:43:38;;;;;;;;;;;;;;;7.09;79.32;99331.23;1756579;81;21022;-68
2021/09/21 05:46:06;;;;;;;4.00;1.15;;;;;;;7.11;79.27;99336.41;1755247;81;20130;-69
2021/09/21 05:48:32;;;;;;;2.52;1.20;;;;;;;6.97;79.41;99336.84;1755435;82;21043;-69
2021/09/21 05:50:58;;;;;;;2.92;1.22;;;;;;;6.97;79.35;99333.33;1739345;82;21473;-68
2021/09/21 05:53:25;;;;;;;3.27;1.30;;;;;;;7.01;79.23;99327.11;1739386;82;21688;-68
2021/09/21 05:55:51;;;;;;;;;;;;;;;7.01;79.33;99331.17;1740821;82;21139;-68
2021/09/21 05:58:19;;;;;;;;;;;;;;;7.05;79.42;99335.53;1737980;82;20115;-68
2021/09/21 06:00:45;;;;;;;2.17;0.80;;;;;;;7.10;79.40;99330.17;1754542;81;20488;-69
2021/09/21 06:03:12;;;;;;;3.20;1.22;;;;;;;7.06;79.48;99329.59;1754221;82;21859;-68
2021/09/21 06:05:40;;;;;;;1.02;0.65;;;;;;;7.04;79.49;99327.16;1755288;82;21660;-69
2021/09/21 06:08:06;;;;;;;2.20;1.00;;;;;;;7.09;79.42;99328.53;1755405;82;21755;-68
2021/09/21 06:10:35;;;;;;;2.70;1.00;;;;;;;7.17;78.98;99325.35;1726732;82;21075;-68
2021/09/21 06:13:02;;;;;;;0.90;0.60;;;;;;;7.13;78.97;99325.59;1725746;82;21506;-69
2021/09/21 06:15:30;;;;;;;2.17;1.02;;;;;;;7.11;78.97;99324.23;1727525;82;21082;-69
2021/09/21 06:17:58;;;;;;;1.98;0.88;;;;;;;7.20;78.71;99330.25;1690648;84;21071;-69
2021/09/21 06:20:25;;;;;;;2.12;0.70;;;;;;;7.24;78.46;99323.77;1738486;82;21074;-69
2021/09/21 06:22:53;;;;;;;2.02;0.78;;;;;;;7.19;78.32;99329.95;1747773;82;21046;-69
2021/09/21 06:25:20;;;;;;;1.42;0.60;;;;;;;7.20;78.35;99319.95;1753160;82;21604;-68
2021/09/21 06:27:47;;;;;;;1.80;0.80;;;;;;;7.30;78.19;99322.19;1751144;82;21054;-69
2021/09/21 06:30:15;;;;;;;4.17;0.70;;;;;;;7.34;78.12;99324.66;1725532;82;21082;-68
2021/09/21 06:32:43;;;;;;;1.35;0.50;;;;;;;7.36;78.19;99319.81;1725731;82;21066;-68
2021/09/21 06:35:10;;;;;;;1.50;0.60;;;;;;;7.44;78.09;99324.72;1737655;81;21051;-68
2021/09/21 06:37:36;;;;;;;;;;;;;;;7.63;77.74;99329.72;1728164;83;21479;-69
2021/09/21 06:40:03;;;;;;;3.52;0.70;;;;;;;7.67;77.44;99330.30;1750041;82;20091;-69
2021/09/21 06:42:32;;;;;;;2.08;0.68;;;;;;;7.59;77.46;99329.95;1753564;82;21506;-68
2021/09/21 06:44:59;;;;;;;0.90;0.50;;;;;;;7.63;77.46;99331.07;1753507;81;21134;-68
2021/09/21 06:47:26;;;;;;;1.00;0.45;;;;;;;7.73;77.11;99328.41;1741166;82;21541;-68
2021/09/21 06:49:52;;;;;;;1.02;0.50;;;;;;;7.78;76.86;99340.11;1727295;81;21565;-69
2021/09/21 06:52:20;;;;;;;1.15;0.40;;;;;;;7.78;76.70;99337.94;1753500;81;21517;-69
2021/09/21 06:54:48;;;;;;;1.77;0.53;;;;;;;7.74;76.68;99347.66;1742366;81;21101;-68
2021/09/21 06:57:14;;;;;;;4.33;0.72;;;;;;;7.82;75.96;99345.81;1754499;81;21538;-69
2021/09/21 06:59:40;;;;;;;2.35;0.80;;;;;;;7.79;75.67;99339.58;1739593;81;21035;-69
2021/09/21 07:02:07;;;;;;;;;;;;;;;7.74;76.03;99349.84;1743580;81;21093;-69
2021/09/21 07:04:33;;;;;;;1.00;0.40;;;;;;;7.79;76.16;99354.48;1722997;81;20116;-69
2021/09/21 07:07:00;;;;;;;1.20;0.75;;;;;;;7.84;76.11;99343.65;1728303;82;21034;-69
2021/09/21 07:09:26;;;;;;;0.82;0.47;;;;;;;7.85;75.76;99350.70;1737498;82;21079;-69
2021/09/21 07:11:54;;;;;;;1.60;0.55;;;;;;;7.81;75.87;99344.17;1744759;81;20995;-69
2021/09/21 07:14:21;;;;;;;1.15;0.50;;;;;;;7.86;75.67;99353.70;1745987;81;21197;-68
2021/09/21 07:16:47;;;;;;;0.90;0.45;;;;;;;7.91;75.38;99354.53;1745252;81;20971;-69
2021/09/21 07:19:18;;;;;;;1.25;0.68;;;;;;;7.92;75.33;99364.84;1743121;81;20991;-69
2021/09/21 07:21:48;;;;;;;0.93;0.50;;;;;;;7.88;74.93;99367.80;1721832;82;21075;-69
2021/09/21 07:24:17;;;;;;;1.70;0.55;;;;;;;7.86;75.04;99355.88;1727918;82;21050;-68
2021/09/21 07:26:44;;;;;;;1.60;0.80;;;;;;;7.92;74.91;99361.59;1739921;81;20989;-69
2021/09/21 07:29:10;;;;;;;1.55;0.80;;;;;;;7.89;75.11;99355.34;1744189;82;20991;-69
2021/09/21 07:31:38;;;;;;;1.42;0.60;;;;;;;7.84;75.06;99359.91;1740858;81;21529;-69
2021/09/21 07:34:04;;;;;;;1.65;0.82;;;;;;;7.86;74.91;99367.25;1735578;82;20987;-69
2021/09/21 07:36:31;;;;;;;1.80;0.70;;;;;;;7.85;74.50;99368.32;1738877;81;21089;-69
2021/09/21 07:38:59;;;;;;;1.20;0.60;;;;;;;7.78;74.71;99371.27;1746525;81;21031;-69
2021/09/21 07:41:25;;;;;;;1.27;0.50;;;;;;;7.76;75.04;99365.84;1742551;82;21038;-69
2021/09/21 07:43:52;;;;;;;1.15;0.70;;;;;;;7.85;74.78;99368.32;1754839;81;21044;-69
2021/09/21 07:46:21;;;;;;;1.85;0.80;;;;;;;7.89;74.54;99375.67;1753632;82;21046;-68
2021/09/21 07:48:48;;;;;;;0.70;0.45;;;;;;;7.82;74.40;99367.50;1752589;81;21027;-68
2021/09/21 07:51:14;;;;;;;1.02;0.50;;;;;;;7.80;74.46;99377.23;1731735;81;21095;-69
2021/09/21 07:53:41;;;;;;;1.32;0.60;;;;;;;7.82;74.19;99375.09;1743015;81;21042;-69
2021/09/21 07:56:07;;;;;;;1.32;0.60;;;;;;;7.78;74.15;99373.98;1743665;81;21055;-69
2021/09/21 07:58:34;;;;;;;1.30;0.70;;;;;;;7.78;74.51;99378.05;1744428;82;21038;-69
2021/09/21 08:01:01;;;;;;;1.45;0.70;;;;;;;7.86;74.45;99382.16;1748152;82;21039;-69
2021/09/21 08:03:28;;;;;;;1.55;0.75;;;;;;;7.85;74.33;99370.50;1733391;81;21035;-69
2021/09/21 08:05:55;;;;;;;;;;;;;;;7.81;74.50;99373.45;1757925;81;21051;-69
2021/09/21 08:08:21;;;;;;;1.47;0.70;;;;;;;7.82;74.55;99375.63;1747579;80;20138;-69
2021/09/21 08:10:48;;;;;;;1.10;0.68;;;;;;;7.89;74.16;99372.14;1751407;80;21055;-69
2021/09/21 08:13:16;;;;;;;2.85;0.80;;;;;;;7.85;74.07;99371.03;1739517;80;21050;-69
2021/09/21 08:15:42;;;;;;;1.52;0.50;;;;;;;7.81;74.10;99375.34;1723957;83;21088;-68
2021/09/21 08:18:10;;;;;;;1.35;0.80;;;;;;;7.83;74.17;99373.20;1703498;82;21058;-68
2021/09/21 08:20:38;;;;;;;2.17;0.82;;;;;;;7.85;74.00;99373.20;1749267;80;21683;-67
2021/09/21 08:23:04;;;;;;;2.05;0.70;;;;;;;7.83;73.96;99373.98;1738573;81;21490;-68
2021/09/21 08:25:31;;;;;;;1.17;0.60;;;;;;;7.86;73.96;99372.14;1734470;82;21546;-69
2021/09/21 08:27:59;;;;;;;1.02;0.65;;;;;;;7.97;73.74;99379.78;1721589;82;21535;-68
2021/09/21 08:30:29;;;;;;;1.00;0.53;;;;;;;7.97;73.54;99377.08;1743713;82;21126;-67
2021/09/21 08:32:58;;;;;;;2.42;0.60;;;;;;;7.94;73.72;99378.93;1736538;82;21039;-68
2021/09/21 08:35:27;;;;;;;1.05;0.55;;;;;;;7.97;73.58;99375.72;1721871;81;21542;-68
2021/09/21 08:37:53;;;;;;;;;;;;;;;8.04;73.37;99364.09;1746409;82;21503;-68
2021/09/21 08:40:19;;;;;;;2.12;0.88;;;;;;;8.03;73.39;99376.55;1745031;82;20397;-68
2021/09/21 08:42:46;;;;;;;1.62;0.85;;;;;;;7.90;73.45;99376.49;1740120;82;21043;-68
2021/09/21 08:45:13;;;;;;;1.85;0.70;;;;;;;7.89;73.59;99373.50;1734456;82;21099;-68
2021/09/21 08:47:41;;;;;;;1.45;0.70;;;;;;;7.99;73.36;99370.30;1745477;82;21062;-68
2021/09/21 08:50:10;;;;;;;1.60;0.65;;;;;;;8.04;73.29;99371.41;1754051;80;21526;-68
2021/09/21 08:52:40;;;;;;;1.50;0.88;;;;;;;8.01;73.14;99376.27;1741804;81;21616;-68
2021/09/21 08:55:11;;;;;;;3.55;0.98;;;;;;;8.01;73.10;99374.09;1741908;82;21043;-68
2021/09/21 08:57:38;;;;;;;2.20;0.60;;;;;;;8.10;73.08;99380.66;1740358;82;21079;-68
2021/09/21 09:00:07;;;;;;;;;;;;;;;8.14;72.94;99374.16;1758128;82;21023;-68
2021/09/21 09:02:33;;;;;;;1.22;0.80;;;;;;;8.11;73.23;99378.23;1746697;82;20367;-68
2021/09/21 09:05:07;;;;;;;1.85;0.75;;;;;;;8.04;73.38;99384.43;1752859;81;21010;-68
2021/09/21 09:07:36;;;;;;;1.95;0.80;;;;;;;8.11;73.53;99386.89;1746393;82;21011;-68
2021/09/21 09:10:05;;;;;;;1.42;0.80;;;;;;;8.19;73.51;99380.41;1745133;82;21043;-69
2021/09/21 09:12:33;;;;;;;1.60;0.90;;;;;;;8.18;73.18;99382.87;1747309;82;21022;-68
2021/09/21 09:15:13;;;;;;;1.32;0.70;;;;;;;8.13;72.67;99391.50;1745343;82;21557;-68
2021/09/21 09:17:40;;;;;;;1.52;0.78;;;;;;;8.13;72.55;99392.86;1718866;82;21047;-68
2021/09/21 09:20:08;;;;;;;1.30;0.60;;;;;;;8.12;72.55;99389.33;1758969;81;21621;-69
2021/09/21 09:22:35;;;;;;;1.30;0.62;;;;;;;8.10;72.85;99389.32;1732257;81;21018;-68
2021/09/21 09:25:05;;;;;;;1.37;0.70;;;;;;;8.16;72.54;99397.21;1746901;82;21051;-69
2021/09/21 09:27:47;;;;;;;1.65;0.80;;;;;;;8.28;72.41;99397.85;1737675;82;20999;-70
2021/09/21 09:30:19;;;;;;;1.40;0.90;;;;;;;8.27;72.36;99396.72;1737248;82;21066;-69
2021/09/21 09:32:52;;;;;;;1.55;0.50;;;;;;;8.22;72.53;99393.44;1740634;82;21883;-69
2021/09/21 09:37:59;;;;;;;1.00;0.47;;;;;;;8.35;72.35;99386.22;1807954;78;22691;-68
2021/09/21 09:40:27;;;;;;;0.85;0.53;;;;;;;8.27;72.99;99387.23;1764037;80;21039;-68
2021/09/21 09:42:54;;;;;;;1.20;0.70;;;;;;;8.35;72.92;99386.22;1680898;83;21577;-68
2021/09/21 09:45:31;;;;;;;1.07;0.60;;;;;;;8.46;72.47;99393.31;1716027;83;21726;-69
2021/09/21 09:47:57;;;;;;;1.52;0.62;;;;;;;8.51;72.64;99393.85;1719549;83;21553;-68
2021/09/21 09:50:26;;;;;;;;;;;;;;;8.58;72.26;99398.48;1700186;83;21085;-68
2021/09/21 09:53:05;;;;;;;1.25;0.60;;;;;;;8.66;71.92;99393.08;1703090;83;20140;-69
2021/09/21 09:55:35;;;;;;;1.87;0.70;;;;;;;8.61;72.10;99391.73;1716356;83;21582;-69
2021/09/21 09:58:03;;;;;;;2.00;0.70;;;;;;;8.60;72.28;99386.84;1703582;83;21191;-68
2021/09/21 10:00:29;;;;;;;1.40;0.65;;;;;;;8.69;71.96;99393.91;1707913;83;21077;-69
2021/09/21 10:02:56;;;;;;;;;;;;;;;8.74;71.58;99402.07;1704056;83;21090;-69
2021/09/21 10:05:22;;;;;;;1.92;0.60;;;;;;;8.69;71.57;99396.62;1723997;83;20159;-69
2021/09/21 10:07:49;;;;;;;1.65;0.70;;;;;;;8.59;71.51;99396.59;1701632;83;21051;-69
2021/09/21 10:10:16;;;;;;;1.90;0.65;;;;;;;8.63;71.55;99394.98;1695510;84;21095;-68
2021/09/21 10:12:43;;;;;;;2.40;0.70;;;;;;;8.75;70.88;99403.71;1709441;83;21043;-68
2021/09/21 10:15:11;;;;;;;1.77;0.60;;;;;;;8.73;70.89;99401.25;1707031;83;21047;-69
2021/09/21 10:17:53;;;;;;;1.37;0.53;;;;;;;8.72;71.04;99404.22;1708163;83;21061;-68
2021/09/21 10:20:21;;;;;;;1.22;0.42;;;;;;;8.71;69.87;99402.61;1695061;84;21514;-68
2021/09/21 10:22:53;;;;;;;2.27;0.60;;;;;;;8.62;70.20;99400.13;1701831;83;21106;-68
2021/09/21 10:25:32;;;;;;;1.20;0.50;;;;;;;8.62;70.67;99401.48;1724185;82;21708;-69
2021/09/21 10:27:58;;;;;;;2.95;0.70;;;;;;;8.67;70.36;99402.86;1703279;83;21045;-68
2021/09/21 10:30:29;;;;;;;;;;;;;;;8.61;70.41;99396.59;1700549;83;21089;-68
2021/09/21 10:32:54;;;;;;;1.92;0.65;;;;;;;8.58;70.53;99413.94;1705155;83;20168;-69
2021/09/21 10:35:24;;;;;;;1.32;0.50;;;;;;;8.57;70.45;99410.45;1701795;83;21010;-68
2021/09/21 10:38:03;;;;;;;2.85;0.60;;;;;;;8.61;70.51;99405.30;1714718;83;21004;-70
2021/09/21 10:40:44;;;;;;;1.52;0.40;;;;;;;8.57;70.74;99412.34;1699514;83;21078;-69
2021/09/21 10:43:31;;;;;;;1.22;0.60;;;;;;;8.50;71.01;99420.73;1746441;81;21002;-69
2021/09/21 10:46:16;;;;;;;0.63;0.40;;;;;;;8.57;70.86;99416.41;1750275;81;21082;-70
2021/09/21 10:48:44;;;;;;;2.15;0.60;;;;;;;8.59;70.48;99419.66;1740623;81;21609;-68
2021/09/21 10:51:12;;;;;;;2.62;0.55;;;;;;;8.54;70.50;99421.02;1735720;81;21030;-68
2021/09/21 10:53:40;;;;;;;3.37;0.70;;;;;;;8.54;70.94;99430.51;1730358;81;21346;-68
2021/09/21 10:56:09;;;;;;;1.05;0.40;;;;;;;8.63;70.96;99431.61;1742385;79;21054;-68
2021/09/21 10:58:36;;;;;;;0.65;0.50;;;;;;;8.64;70.83;99425.94;1758040;81;20956;-68
2021/09/21 11:01:03;;;;;;;;;;;;;;;8.41;70.64;99400.60;1756395;81;21054;-67
2021/09/21 11:03:30;;;;;;;2.70;0.50;;;;;;;8.49;70.83;99428.05;1738747;81;20112;-67
2021/09/21 11:05:58;;;;;;;1.37;0.57;;;;;;;8.49;70.89;99433.47;1736518;79;21112;-68
2021/09/21 11:08:32;;;;;;;1.30;0.60;;;;;;;8.44;71.11;99444.29;1726962;81;21589;-67
2021/09/21 11:11:02;;;;;;;0.57;0.33;;;;;;;8.40;71.37;99447.78;1752755;80;21603;-68
2021/09/21 11:13:43;;;;;;;1.55;0.40;;;;;;;8.46;71.67;99428.58;1733013;81;20983;-66
2021/09/21 11:16:12;;;;;;;1.45;0.60;;;;;;;8.56;71.29;99438.64;1699277;82;21420;-67
2021/09/21 11:18:43;;;;;;;1.62;0.40;;;;;;;8.60;71.42;99435.68;1671603;85;21047;-67
2021/09/21 11:21:09;;;;;;;2.42;0.35;;;;;;;8.66;71.54;99434.61;1698961;83;21086;-67
2021/09/21 11:23:39;;;;;;;1.00;0.45;;;;;;;8.81;70.55;99440.09;1687306;85;21051;-68
2021/09/21 11:26:09;;;;;;;5.40;0.60;;;;;;;8.83;69.94;99438.45;1700596;83;21075;-67
2021/09/21 11:28:40;;;;;;;1.20;0.53;;;;;;;8.73;70.47;99435.71;1729504;81;21022;-67
2021/09/21 11:31:06;;;;;;;1.80;0.40;;;;;;;8.68;70.77;99442.50;1639976;85;21356;-67
2021/09/21 11:33:37;;;;;;;1.75;0.70;;;;;;;8.74;70.36;99442.78;1698443;82;21031;-68
2021/09/21 11:36:10;;;;;;;1.07;0.60;;;;;;;8.71;70.52;99445.49;1705639;82;21055;-67
2021/09/21 11:38:40;;;;;;;4.58;0.40;;;;;;;8.67;70.70;99442.21;1709321;83;21898;-67
2021/09/21 11:41:07;;;;;;;0.90;0.42;;;;;;;8.69;70.85;99449.00;1724418;82;21097;-67
2021/09/21 11:43:34;;;;;;;1.15;0.42;;;;;;;8.74;70.97;99449.56;1719745;83;21045;-66
2021/09/21 11:46:02;;;;;;;0.78;0.37;;;;;;;8.73;70.22;99448.74;1684977;83;21133;-67
2021/09/21 11:48:28;;;;;;;;;;;;;;;8.63;70.09;99454.14;1699398;84;21559;-67
2021/09/21 11:50:54;;;;;;;0.70;0.40;;;;;;;8.65;70.22;99453.32;1705504;83;20112;-66
2021/09/21 11:53:27;;;;;;;1.15;0.50;;;;;;;8.68;69.93;99446.00;1712065;83;21586;-66
2021/09/21 11:55:56;;;;;;;1.45;0.72;;;;;;;8.64;69.20;99451.71;1727161;83;21065;-66
2021/09/21 11:58:28;;;;;;;2.33;0.50;;;;;;;8.57;69.92;99461.99;1699514;83;21545;-67
2021/09/21 12:00:58;;;;;;;1.60;0.40;;;;;;;8.61;69.61;99456.28;1701018;83;21489;-67
2021/09/21 12:03:25;;;;;;;5.92;0.72;;;;;;;8.66;69.31;99456.85;1712639;83;21579;-66
2021/09/21 12:05:52;;;;;;;1.37;0.50;;;;;;;8.61;69.26;99469.06;1698506;83;21104;-67